Time;durP1;ratioP1;P1;durP2;ratioP2;P2;SDS_P1;SDS_P2;PMS_P1;PMS_P2;Temp;Humidity;BMP_temperature;BMP_pressure;BME280_temperature;BME280_humidity;BME280_pressure;Samples;Min_cycle;Max_cycle;Signal;HPM_P1;HPM_P2
2023/12/13 00:02:06;;;;;;;1.80;1.30;;;8.20;99.90;;;;;;5035001;28;20177;-67
2023/12/13 00:04:32;;;;;;;1.60;1.03;;;8.20;99.90;;;;;;5038323;28;20438;-67
2023/12/13 00:06:58;;;;;;;2.03;1.33;;;8.30;99.90;;;;;;5035565;28;20437;-67
2023/12/13 00:09:23;;;;;;;2.23;1.20;;;8.30;99.90;;;;;;5062321;22;20272;-68
2023/12/13 00:11:49;;;;;;;2.40;1.40;;;8.30;99.90;;;;;;5051174;28;20174;-68
2023/12/13 00:14:14;;;;;;;0.90;0.90;;;8.30;99.90;;;;;;5054594;28;20186;-68
2023/12/13 00:16:40;;;;;;;2.10;1.10;;;8.30;99.90;;;;;;5054450;28;20204;-68
2023/12/13 00:19:06;;;;;;;1.30;0.83;;;8.30;99.90;;;;;;5056748;28;20236;-68
2023/12/13 00:21:32;;;;;;;3.47;3.00;;;8.40;99.90;;;;;;5051843;28;20184;-68
2023/12/13 00:23:57;;;;;;;1.20;1.00;;;8.40;99.90;;;;;;5055372;28;20436;-67
2023/12/13 00:26:23;;;;;;;2.93;1.43;;;8.30;99.90;;;;;;5064634;28;20591;-68
2023/12/13 00:28:50;;;;;;;1.90;1.23;;;8.30;99.90;;;;;;5046683;28;20213;-68
2023/12/13 00:31:15;;;;;;;2.07;1.13;;;8.20;99.90;;;;;;5054128;28;20818;-68
2023/12/13 00:33:42;;;;;;;2.90;1.20;;;8.00;99.90;;;;;;5054028;28;20435;-68
2023/12/13 00:36:08;;;;;;;4.43;1.33;;;7.90;99.90;;;;;;5054565;28;20173;-68
2023/12/13 00:38:34;;;;;;;2.60;1.47;;;7.70;99.90;;;;;;5058376;28;21017;-68
2023/12/13 00:40:59;;;;;;;1.77;1.00;;;7.60;99.90;;;;;;5063151;28;20465;-67
2023/12/13 00:43:26;;;;;;;1.97;1.20;;;7.50;99.90;;;;;;5051012;28;20181;-68
2023/12/13 00:45:51;;;;;;;0.90;0.90;;;7.40;99.90;;;;;;5053399;28;20177;-68
2023/12/13 00:48:17;;;;;;;2.10;1.10;;;7.40;99.90;;;;;;5054711;28;20848;-68
2023/12/13 00:50:43;;;;;;;1.50;0.90;;;7.30;99.90;;;;;;5055300;28;20230;-68
2023/12/13 00:53:09;;;;;;;0.93;0.90;;;7.20;99.90;;;;;;5056838;28;20173;-68
2023/12/13 00:55:34;;;;;;;3.67;1.63;;;7.20;99.90;;;;;;5060413;28;20443;-68
2023/12/13 00:58:00;;;;;;;1.97;1.13;;;7.10;99.90;;;;;;5054442;28;20467;-68
2023/12/13 01:00:26;;;;;;;4.40;1.10;;;7.10;99.90;;;;;;5051556;28;20235;-67
2023/12/13 01:02:51;;;;;;;2.10;1.10;;;7.00;99.90;;;;;;5053357;28;20182;-68
2023/12/13 01:05:17;;;;;;;1.10;0.80;;;7.00;99.90;;;;;;5055260;28;20591;-68
2023/12/13 01:07:43;;;;;;;2.60;1.27;;;7.00;99.90;;;;;;5051391;28;20551;-68
2023/12/13 01:10:09;;;;;;;1.10;1.00;;;6.90;99.90;;;;;;5054003;28;20268;-68
2023/12/13 01:12:34;;;;;;;2.20;1.50;;;6.90;99.90;;;;;;5051200;28;20508;-67
2023/12/13 01:15:00;;;;;;;2.03;0.93;;;6.90;99.90;;;;;;5056085;28;20275;-68
2023/12/13 01:17:26;;;;;;;2.70;1.40;;;6.90;99.90;;;;;;5057660;28;20231;-68
2023/12/13 01:19:52;;;;;;;2.13;1.20;;;6.90;99.90;;;;;;5056990;28;20694;-68
2023/12/13 01:22:18;;;;;;;2.23;0.93;;;6.80;99.90;;;;;;5060013;28;20166;-68
2023/12/13 01:24:44;;;;;;;1.10;0.97;;;6.80;99.90;;;;;;5057932;28;20435;-68
2023/12/13 01:27:09;;;;;;;2.67;1.70;;;6.80;99.90;;;;;;5059672;28;20445;-68
2023/12/13 01:29:35;;;;;;;1.33;0.87;;;6.80;99.90;;;;;;5050215;28;20202;-67
2023/12/13 01:32:00;;;;;;;1.47;1.13;;;6.80;99.90;;;;;;5054175;28;20623;-68
2023/12/13 01:34:26;;;;;;;4.00;1.43;;;6.80;99.90;;;;;;5055486;28;20177;-68
2023/12/13 01:36:51;;;;;;;1.47;1.13;;;6.70;99.90;;;;;;5054466;28;20177;-68
2023/12/13 01:39:17;;;;;;;2.40;1.13;;;6.70;99.90;;;;;;5050951;28;20748;-68
2023/12/13 01:41:43;;;;;;;1.43;1.00;;;6.70;99.90;;;;;;5052097;28;20182;-68
2023/12/13 01:44:09;;;;;;;3.70;1.23;;;6.70;99.90;;;;;;5057291;28;20199;-68
2023/12/13 01:46:35;;;;;;;0.70;0.70;;;6.70;99.90;;;;;;5061676;28;20891;-68
2023/12/13 01:49:01;;;;;;;7.13;2.10;;;6.80;99.90;;;;;;5054725;28;20509;-68
2023/12/13 01:51:28;;;;;;;1.17;1.07;;;6.80;99.90;;;;;;5053649;28;20184;-67
2023/12/13 01:53:54;;;;;;;1.20;0.67;;;6.90;99.90;;;;;;5060008;28;20432;-68
2023/12/13 01:56:20;;;;;;;6.07;1.13;;;6.90;99.90;;;;;;5054036;28;20931;-68
2023/12/13 01:58:45;;;;;;;1.17;0.90;;;6.80;99.90;;;;;;5058901;28;20474;-68
2023/12/13 02:01:11;;;;;;;4.60;1.43;;;6.80;99.90;;;;;;5054735;28;20444;-68
2023/12/13 02:03:37;;;;;;;1.67;0.80;;;6.80;99.90;;;;;;5056813;28;20204;-68
2023/12/13 02:06:04;;;;;;;2.77;1.07;;;6.80;99.90;;;;;;5057311;28;20196;-68
2023/12/13 02:08:30;;;;;;;4.63;0.87;;;6.80;99.90;;;;;;5062439;28;20493;-67
2023/12/13 02:10:57;;;;;;;2.40;1.00;;;6.80;99.90;;;;;;5049778;28;20527;-68
2023/12/13 02:13:23;;;;;;;3.33;1.00;;;6.80;99.90;;;;;;5047810;28;20836;-68
2023/12/13 02:15:49;;;;;;;3.97;0.90;;;6.70;99.90;;;;;;5050439;28;20440;-68
2023/12/13 02:18:14;;;;;;;4.00;1.50;;;6.70;99.90;;;;;;5055016;28;20234;-68
2023/12/13 02:20:41;;;;;;;1.90;1.20;;;6.70;99.90;;;;;;5062553;28;20441;-67
2023/12/13 02:23:06;;;;;;;1.57;1.10;;;6.80;99.90;;;;;;5054491;28;20185;-68
2023/12/13 02:25:34;;;;;;;6.00;1.20;;;6.70;99.90;;;;;;5057415;28;20444;-68
2023/12/13 02:28:00;;;;;;;4.67;1.80;;;6.70;99.90;;;;;;5052794;28;20626;-68
2023/12/13 02:30:27;;;;;;;3.87;0.90;;;6.70;99.90;;;;;;5065222;28;20434;-68
2023/12/13 02:32:53;;;;;;;1.03;0.93;;;6.70;99.90;;;;;;5054378;28;20442;-68
2023/12/13 02:35:18;;;;;;;1.10;0.80;;;6.70;99.90;;;;;;5050332;28;20511;-68
2023/12/13 02:37:49;;;;;;;2.47;1.00;;;6.70;99.90;;;;;;5057279;28;20251;-68
2023/12/13 02:40:15;;;;;;;5.93;1.40;;;6.70;99.90;;;;;;5053462;28;20699;-67
2023/12/13 02:42:41;;;;;;;3.90;0.87;;;6.70;99.90;;;;;;5053415;28;20474;-68
2023/12/13 02:45:11;;;;;;;1.67;0.83;;;6.70;99.90;;;;;;5054454;28;20432;-68
2023/12/13 02:47:38;;;;;;;2.63;0.80;;;6.70;99.90;;;;;;5057892;28;20192;-68
2023/12/13 02:50:06;;;;;;;4.00;1.13;;;6.70;99.90;;;;;;5051721;28;21122;-68
2023/12/13 02:52:31;;;;;;;4.63;0.80;;;6.70;99.90;;;;;;5050927;28;20522;-68
2023/12/13 02:54:57;;;;;;;1.73;1.07;;;6.70;99.90;;;;;;5055763;28;20522;-68
2023/12/13 02:57:22;;;;;;;1.73;0.80;;;6.60;99.90;;;;;;5047017;28;20228;-68
2023/12/13 02:59:48;;;;;;;6.43;1.80;;;6.60;99.90;;;;;;5052301;28;20650;-68
2023/12/13 03:02:13;;;;;;;2.07;0.90;;;6.60;99.90;;;;;;5053608;28;20174;-69
2023/12/13 03:04:39;;;;;;;1.47;0.83;;;6.60;99.90;;;;;;5057172;28;20189;-68
2023/12/13 03:07:04;;;;;;;2.63;0.73;;;6.60;99.90;;;;;;5053171;28;20196;-68
2023/12/13 03:09:30;;;;;;;1.80;0.87;;;6.60;99.90;;;;;;5048296;28;20209;-68
2023/12/13 03:11:55;;;;;;;1.80;0.80;;;6.60;99.90;;;;;;5052410;28;20828;-68
2023/12/13 03:14:21;;;;;;;3.10;0.90;;;6.60;99.90;;;;;;5061672;28;20227;-68
2023/12/13 03:16:46;;;;;;;1.20;1.10;;;6.60;99.90;;;;;;5052152;28;20643;-68
2023/12/13 03:19:12;;;;;;;2.00;0.70;;;6.60;99.90;;;;;;5055309;28;20218;-68
2023/12/13 03:21:37;;;;;;;7.10;1.10;;;6.60;99.90;;;;;;5052599;28;20182;-68
2023/12/13 03:24:03;;;;;;;2.70;1.53;;;6.60;99.90;;;;;;5063385;28;20639;-68
2023/12/13 03:26:29;;;;;;;1.00;0.70;;;6.60;99.90;;;;;;5061454;28;20183;-68
2023/12/13 03:28:54;;;;;;;1.77;0.80;;;6.60;99.90;;;;;;5057968;28;20602;-68
2023/12/13 03:31:20;;;;;;;2.60;1.20;;;6.60;99.90;;;;;;5049263;28;20185;-68
2023/12/13 03:33:45;;;;;;;2.00;1.00;;;6.60;99.90;;;;;;5063197;28;20916;-68
2023/12/13 03:36:15;;;;;;;2.23;2.03;;;6.60;99.90;;;;;;5056584;28;20662;-68
2023/12/13 03:38:42;;;;;;;4.17;1.80;;;6.60;99.90;;;;;;5057748;28;20233;-68
2023/12/13 03:41:07;;;;;;;4.43;2.77;;;6.50;99.90;;;;;;5063692;28;20898;-68
2023/12/13 03:43:33;;;;;;;6.77;3.13;;;6.50;99.90;;;;;;5053940;28;20527;-68
2023/12/13 03:45:58;;;;;;;3.20;1.80;;;6.50;99.90;;;;;;5053636;28;20288;-68
2023/12/13 03:48:24;;;;;;;3.00;1.50;;;6.50;99.90;;;;;;5055697;28;20231;-68
2023/12/13 03:50:49;;;;;;;1.40;1.30;;;6.40;99.90;;;;;;5045265;28;20260;-68
2023/12/13 03:53:15;;;;;;;1.27;1.17;;;6.30;99.90;;;;;;5056968;28;20610;-68
2023/12/13 03:55:40;;;;;;;1.60;1.00;;;6.30;99.90;;;;;;5054230;28;20194;-68
2023/12/13 03:58:06;;;;;;;4.70;4.00;;;6.40;99.90;;;;;;5053900;28;20205;-68
2023/12/13 04:00:31;;;;;;;2.80;1.83;;;6.40;99.90;;;;;;5058042;28;20681;-68
2023/12/13 04:02:57;;;;;;;2.40;1.27;;;6.40;99.90;;;;;;5050388;28;20208;-68
2023/12/13 04:05:22;;;;;;;1.57;1.17;;;6.30;99.90;;;;;;5059945;28;20174;-68
2023/12/13 04:07:48;;;;;;;2.00;1.80;;;6.30;99.90;;;;;;5056737;28;20678;-68
2023/12/13 04:10:15;;;;;;;3.33;1.20;;;6.20;99.90;;;;;;5060909;28;20268;-68
2023/12/13 04:12:40;;;;;;;1.73;1.47;;;6.20;99.90;;;;;;5056379;28;20181;-68
2023/12/13 04:15:06;;;;;;;2.73;1.50;;;6.30;99.90;;;;;;5055959;28;20431;-68
2023/12/13 04:17:32;;;;;;;2.40;1.30;;;6.30;99.90;;;;;;5056673;28;20246;-68
2023/12/13 04:19:58;;;;;;;5.33;1.30;;;6.30;99.90;;;;;;5051463;28;20428;-68
2023/12/13 04:22:24;;;;;;;1.60;1.00;;;6.40;99.90;;;;;;5063173;28;20677;-67
2023/12/13 04:24:49;;;;;;;4.83;1.23;;;6.40;99.90;;;;;;5056520;28;20460;-67
2023/12/13 04:27:15;;;;;;;2.47;2.13;;;6.40;99.90;;;;;;5060559;28;20268;-68
2023/12/13 04:29:40;;;;;;;1.50;1.17;;;6.50;99.90;;;;;;5056241;28;20593;-68
2023/12/13 04:32:06;;;;;;;2.80;1.47;;;6.50;99.90;;;;;;5055847;28;20177;-68
2023/12/13 04:34:31;;;;;;;6.30;1.60;;;6.50;99.90;;;;;;5060207;28;20177;-68
2023/12/13 04:36:58;;;;;;;3.23;1.53;;;6.60;99.90;;;;;;5054121;28;20177;-68
2023/12/13 04:39:24;;;;;;;2.73;1.87;;;6.50;99.90;;;;;;5050793;28;20201;-68
2023/12/13 04:41:49;;;;;;;2.60;1.20;;;6.50;99.90;;;;;;5058016;28;20424;-68
2023/12/13 04:44:15;;;;;;;3.17;1.43;;;6.50;99.90;;;;;;5064092;28;20215;-68
2023/12/13 04:46:40;;;;;;;2.50;1.10;;;6.60;99.90;;;;;;5058201;28;20264;-68
2023/12/13 04:49:06;;;;;;;4.00;0.97;;;6.70;99.90;;;;;;5058035;28;20789;-68
2023/12/13 04:51:31;;;;;;;2.53;1.67;;;6.70;99.90;;;;;;5053780;28;20807;-68
2023/12/13 04:53:58;;;;;;;1.57;1.00;;;6.70;99.90;;;;;;5061413;28;20264;-68
2023/12/13 04:56:23;;;;;;;0.93;0.90;;;6.70;99.90;;;;;;5056513;28;20185;-68
2023/12/13 04:58:49;;;;;;;1.70;1.60;;;6.70;99.90;;;;;;5053772;28;22407;-68
2023/12/13 05:01:14;;;;;;;3.07;1.27;;;6.70;99.90;;;;;;5054110;28;20185;-67
2023/12/13 05:03:40;;;;;;;1.90;0.90;;;6.70;99.90;;;;;;5056887;28;20231;-68
2023/12/13 05:06:06;;;;;;;6.07;2.10;;;6.70;99.90;;;;;;5055709;28;20173;-68
2023/12/13 05:08:33;;;;;;;2.00;0.93;;;6.80;99.90;;;;;;5058857;28;20210;-68
2023/12/13 05:10:59;;;;;;;3.63;0.90;;;6.80;99.90;;;;;;5047747;28;20635;-68
2023/12/13 05:13:25;;;;;;;1.30;1.10;;;6.80;99.90;;;;;;5053520;28;20447;-68
2023/12/13 05:15:51;;;;;;;1.07;0.90;;;6.80;99.90;;;;;;5058239;28;21034;-68
2023/12/13 05:18:16;;;;;;;3.50;1.20;;;6.80;99.90;;;;;;5055648;28;20498;-68
2023/12/13 05:20:42;;;;;;;5.60;1.80;;;6.80;99.90;;;;;;5052326;28;20627;-68
2023/12/13 05:23:07;;;;;;;0.80;0.80;;;6.80;99.90;;;;;;5056987;28;20185;-68
2023/12/13 05:25:33;;;;;;;2.07;1.00;;;6.80;99.90;;;;;;5055583;28;20181;-68
2023/12/13 05:27:59;;;;;;;1.03;0.80;;;6.80;99.90;;;;;;5056656;28;20201;-68
2023/12/13 05:30:24;;;;;;;2.83;1.70;;;6.80;99.90;;;;;;5063032;28;20570;-68
2023/12/13 05:32:53;;;;;;;2.67;1.30;;;6.80;99.90;;;;;;5054039;28;20444;-68
2023/12/13 05:35:18;;;;;;;1.73;0.80;;;6.80;99.90;;;;;;5061113;28;20268;-68
2023/12/13 05:37:44;;;;;;;2.03;1.17;;;6.80;99.90;;;;;;5050914;28;20555;-68
2023/12/13 05:40:10;;;;;;;2.10;1.17;;;6.80;99.90;;;;;;5054176;28;20554;-68
2023/12/13 05:42:35;;;;;;;1.87;1.20;;;6.80;99.90;;;;;;5050783;28;20185;-68
2023/12/13 05:45:01;;;;;;;2.50;1.13;;;6.90;99.90;;;;;;5058181;28;20845;-67
2023/12/13 05:47:26;;;;;;;1.90;1.00;;;6.90;99.90;;;;;;5058858;28;20181;-68
2023/12/13 05:49:52;;;;;;;2.27;1.20;;;6.90;99.90;;;;;;5060409;28;20187;-68
2023/12/13 05:52:18;;;;;;;1.77;1.43;;;6.90;99.90;;;;;;5058861;28;20681;-68
2023/12/13 05:54:43;;;;;;;2.00;1.13;;;6.90;99.90;;;;;;5061963;28;20186;-68
2023/12/13 05:57:10;;;;;;;3.53;3.17;;;6.90;99.90;;;;;;5059840;28;20439;-68
2023/12/13 05:59:35;;;;;;;2.33;1.63;;;6.80;99.90;;;;;;5050415;28;20193;-68
2023/12/13 06:02:01;;;;;;;2.40;1.03;;;6.80;99.90;;;;;;5052638;28;20443;-68
2023/12/13 06:04:26;;;;;;;2.23;1.63;;;6.80;99.90;;;;;;5057311;28;20172;-68
2023/12/13 06:06:52;;;;;;;1.20;1.10;;;6.80;99.90;;;;;;5054899;28;20659;-68
2023/12/13 06:09:18;;;;;;;0.93;0.80;;;6.90;99.90;;;;;;5062130;22;20244;-68
2023/12/13 06:11:43;;;;;;;1.53;1.43;;;6.80;99.90;;;;;;5031417;28;20174;-68
2023/12/13 06:14:09;;;;;;;1.70;0.80;;;6.90;99.90;;;;;;5041687;28;20432;-68
2023/12/13 06:16:35;;;;;;;2.00;1.40;;;6.90;99.90;;;;;;5034556;28;20188;-68
2023/12/13 06:19:00;;;;;;;1.43;1.13;;;6.90;99.90;;;;;;5032033;28;20570;-68
2023/12/13 06:21:26;;;;;;;2.20;1.07;;;7.00;99.90;;;;;;5031599;28;20644;-68
2023/12/13 06:23:52;;;;;;;2.23;1.27;;;7.10;99.90;;;;;;5030560;28;20177;-68
2023/12/13 06:26:17;;;;;;;3.70;1.50;;;7.10;99.90;;;;;;5038679;28;20639;-68
2023/12/13 06:28:43;;;;;;;4.80;2.03;;;7.10;99.90;;;;;;5029042;28;20210;-68
2023/12/13 06:31:09;;;;;;;2.33;1.33;;;7.20;99.90;;;;;;5040370;28;20185;-68
2023/12/13 06:33:34;;;;;;;1.27;1.03;;;7.20;99.90;;;;;;5032886;28;20873;-68
2023/12/13 06:36:00;;;;;;;4.90;1.40;;;7.20;99.90;;;;;;5031587;28;20236;-67
2023/12/13 06:38:25;;;;;;;2.30;1.40;;;7.30;99.90;;;;;;5035724;28;20629;-68
2023/12/13 06:40:51;;;;;;;1.90;1.23;;;7.30;99.90;;;;;;5031125;28;20289;-68
2023/12/13 06:43:17;;;;;;;3.50;1.40;;;7.30;99.90;;;;;;5030941;28;20206;-68
2023/12/13 06:45:42;;;;;;;1.83;1.33;;;7.30;99.90;;;;;;5031861;28;20182;-68
2023/12/13 06:48:08;;;;;;;3.53;1.73;;;7.30;99.90;;;;;;5038801;28;20654;-68
2023/12/13 06:50:34;;;;;;;3.47;1.70;;;7.30;99.90;;;;;;5036512;28;20587;-68
2023/12/13 06:53:00;;;;;;;4.30;1.50;;;7.20;99.90;;;;;;5041959;28;20473;-68
2023/12/13 06:55:26;;;;;;;3.57;1.90;;;7.20;99.90;;;;;;5038045;28;20209;-68
2023/12/13 06:57:51;;;;;;;5.13;1.30;;;7.20;99.90;;;;;;5033889;28;20198;-68
2023/12/13 07:00:21;;;;;;;4.30;1.60;;;7.20;99.90;;;;;;5036426;28;20253;-68
2023/12/13 07:02:47;;;;;;;1.30;1.20;;;7.20;99.90;;;;;;5030584;28;20206;-68
2023/12/13 07:05:12;;;;;;;2.40;1.13;;;7.20;99.90;;;;;;5031189;28;20828;-68
2023/12/13 07:07:38;;;;;;;2.00;1.57;;;7.20;99.90;;;;;;5040253;28;20185;-68
2023/12/13 07:10:04;;;;;;;2.90;1.20;;;7.20;99.90;;;;;;5036865;28;20209;-68
2023/12/13 07:12:29;;;;;;;1.37;1.20;;;7.20;99.90;;;;;;5016731;28;20185;-68
2023/12/13 07:14:58;;;;;;;1.80;1.27;;;7.20;99.90;;;;;;5016575;28;20188;-68
2023/12/13 07:17:24;;;;;;;1.50;1.30;;;7.20;99.90;;;;;;5018953;28;20183;-68
2023/12/13 07:19:50;;;;;;;5.10;4.03;;;7.20;99.90;;;;;;5015568;28;20446;-68
2023/12/13 07:22:15;;;;;;;2.53;1.43;;;7.20;99.90;;;;;;5015765;28;20414;-68
2023/12/13 07:24:41;;;;;;;6.00;1.70;;;7.20;99.90;;;;;;5015754;28;20413;-68
2023/12/13 07:27:06;;;;;;;1.60;1.50;;;7.20;99.90;;;;;;5016504;28;20202;-68
2023/12/13 07:29:33;;;;;;;4.00;1.30;;;7.30;99.90;;;;;;5022749;28;20264;-68
2023/12/13 07:31:59;;;;;;;4.60;2.43;;;7.30;99.90;;;;;;5035418;28;20166;-68
2023/12/13 07:34:24;;;;;;;1.40;1.23;;;7.30;99.90;;;;;;5035479;28;20439;-68
2023/12/13 07:36:51;;;;;;;2.13;1.13;;;7.30;99.90;;;;;;5034978;28;20178;-68
2023/12/13 07:39:17;;;;;;;1.83;1.20;;;7.30;99.90;;;;;;5033980;28;20206;-68
2023/12/13 07:41:43;;;;;;;4.90;1.20;;;7.40;99.90;;;;;;5016533;28;20421;-68
2023/12/13 07:44:09;;;;;;;1.60;1.30;;;7.40;99.90;;;;;;5015397;28;20553;-68
2023/12/13 07:46:36;;;;;;;3.50;1.30;;;7.40;99.90;;;;;;5015173;28;20974;-68
2023/12/13 07:49:03;;;;;;;3.53;1.67;;;7.50;99.90;;;;;;5015185;28;20218;-68
2023/12/13 07:51:32;;;;;;;2.90;1.53;;;7.50;99.90;;;;;;5015156;28;20417;-68
2023/12/13 07:54:00;;;;;;;1.73;1.63;;;7.50;99.90;;;;;;5015227;28;20425;-68
2023/12/13 07:56:26;;;;;;;4.70;1.70;;;7.50;99.90;;;;;;5015993;28;20954;-68
2023/12/13 07:58:51;;;;;;;3.40;1.30;;;7.50;99.90;;;;;;5014945;28;20461;-68
2023/12/13 08:01:17;;;;;;;1.80;1.60;;;7.50;99.90;;;;;;5015039;28;20175;-68
2023/12/13 08:03:45;;;;;;;1.60;1.30;;;7.50;99.90;;;;;;5015051;28;20170;-68
2023/12/13 08:06:12;;;;;;;1.70;1.50;;;7.40;99.90;;;;;;5015156;28;20214;-68
2023/12/13 08:08:39;;;;;;;9.20;2.07;;;7.40;99.90;;;;;;5013979;28;20479;-68
2023/12/13 08:11:05;;;;;;;13.07;10.10;;;7.40;99.90;;;;;;5016027;28;20432;-68
2023/12/13 08:13:30;;;;;;;3.90;2.60;;;7.40;99.90;;;;;;5014838;28;20861;-68
2023/12/13 08:15:56;;;;;;;1.70;1.60;;;7.50;99.90;;;;;;5014847;28;20512;-68
2023/12/13 08:18:21;;;;;;;2.87;1.57;;;7.50;99.90;;;;;;5014342;28;20213;-68
2023/12/13 08:20:47;;;;;;;1.87;1.43;;;7.50;99.90;;;;;;5014904;28;20567;-68
2023/12/13 08:23:12;;;;;;;2.47;1.67;;;7.50;99.90;;;;;;5015770;28;20175;-68
2023/12/13 08:25:38;;;;;;;4.13;1.80;;;7.50;99.90;;;;;;5015700;28;20175;-68
2023/12/13 08:28:03;;;;;;;2.80;1.60;;;7.60;99.90;;;;;;5014287;28;20547;-68
2023/12/13 08:30:29;;;;;;;2.73;2.40;;;7.60;99.90;;;;;;5014515;28;20838;-68
2023/12/13 08:32:54;;;;;;;3.97;2.40;;;7.60;99.90;;;;;;5014487;28;20175;-68
2023/12/13 08:35:20;;;;;;;1.93;1.83;;;7.60;99.90;;;;;;5014511;28;20186;-68
2023/12/13 08:37:45;;;;;;;5.30;2.20;;;7.60;99.90;;;;;;5028018;28;20213;-68
2023/12/13 08:40:11;;;;;;;3.83;2.00;;;7.60;99.90;;;;;;5032445;28;20628;-68
2023/12/13 08:42:38;;;;;;;2.73;1.97;;;7.60;99.90;;;;;;5034076;28;20168;-68
2023/12/13 08:45:05;;;;;;;1.93;1.50;;;7.60;99.90;;;;;;5034109;28;20233;-68
2023/12/13 08:47:30;;;;;;;3.17;1.33;;;7.70;99.90;;;;;;5033680;28;20786;-68
2023/12/13 08:49:56;;;;;;;4.00;1.80;;;7.70;99.90;;;;;;5033821;28;20445;-68
2023/12/13 08:52:21;;;;;;;3.20;1.60;;;7.70;99.90;;;;;;5028535;28;20536;-68
2023/12/13 08:54:47;;;;;;;1.20;1.10;;;7.70;99.90;;;;;;5014676;28;20269;-68
2023/12/13 08:57:12;;;;;;;4.20;1.77;;;7.70;99.90;;;;;;5012841;28;20552;-68
2023/12/13 08:59:38;;;;;;;2.57;1.73;;;7.80;99.90;;;;;;5012586;28;20664;-68
2023/12/13 09:02:03;;;;;;;2.33;1.73;;;7.90;99.90;;;;;;5013896;28;20190;-68
2023/12/13 09:04:29;;;;;;;3.20;1.50;;;7.90;99.90;;;;;;5013832;28;20171;-68
2023/12/13 09:06:54;;;;;;;4.37;1.80;;;8.00;99.90;;;;;;5013504;28;20175;-68
2023/12/13 09:09:20;;;;;;;7.10;1.87;;;8.00;99.90;;;;;;5014634;28;20221;-68
2023/12/13 09:11:47;;;;;;;2.10;1.60;;;8.00;99.90;;;;;;5015248;28;20704;-68
2023/12/13 09:14:13;;;;;;;2.67;2.40;;;8.00;99.90;;;;;;5013672;28;20173;-68
2023/12/13 09:16:39;;;;;;;6.40;1.70;;;8.10;99.90;;;;;;5013381;28;20911;-68
2023/12/13 09:19:05;;;;;;;2.17;1.87;;;8.20;99.90;;;;;;5012141;28;20218;-68
2023/12/13 09:21:31;;;;;;;2.63;2.00;;;8.20;99.90;;;;;;5014712;28;20175;-68
2023/12/13 09:23:56;;;;;;;7.30;2.97;;;8.20;99.90;;;;;;5033201;28;20765;-68
2023/12/13 09:26:22;;;;;;;1.77;1.67;;;8.30;99.90;;;;;;5031798;28;20180;-68
2023/12/13 09:28:47;;;;;;;3.50;2.07;;;8.30;99.90;;;;;;5033131;28;20281;-68
2023/12/13 09:31:13;;;;;;;3.53;2.10;;;8.20;99.90;;;;;;5033300;28;20176;-68
2023/12/13 09:33:39;;;;;;;4.90;2.20;;;8.20;99.90;;;;;;5033332;28;20249;-67
2023/12/13 09:36:06;;;;;;;2.43;1.90;;;8.30;99.90;;;;;;5033134;28;20174;-68
2023/12/13 09:38:31;;;;;;;2.30;2.10;;;8.30;99.90;;;;;;5019380;28;20795;-67
2023/12/13 09:40:57;;;;;;;4.63;2.60;;;8.40;99.90;;;;;;5014385;28;20475;-68
2023/12/13 09:43:25;;;;;;;2.37;2.13;;;8.50;99.90;;;;;;5013254;28;20209;-67
2023/12/13 09:45:53;;;;;;;3.57;2.20;;;8.50;99.90;;;;;;5013106;28;20163;-68
2023/12/13 09:48:21;;;;;;;2.80;2.40;;;8.50;99.90;;;;;;5012729;28;20442;-68
2023/12/13 09:50:53;;;;;;;7.10;2.33;;;8.60;99.90;;;;;;5013025;28;20426;-68
2023/12/13 09:53:21;;;;;;;3.57;1.97;;;8.70;99.90;;;;;;5014300;28;20496;-68
2023/12/13 09:55:47;;;;;;;2.10;1.90;;;8.80;99.90;;;;;;5014227;28;20429;-68
2023/12/13 09:58:13;;;;;;;3.93;1.90;;;8.70;99.90;;;;;;5012549;28;20454;-68
2023/12/13 10:00:38;;;;;;;4.93;2.20;;;8.70;99.90;;;;;;5012909;28;20418;-68
2023/12/13 10:03:05;;;;;;;6.83;3.07;;;8.70;99.90;;;;;;5012718;28;20171;-68
2023/12/13 10:05:32;;;;;;;2.37;2.00;;;8.60;99.90;;;;;;5012745;28;20159;-68
2023/12/13 10:08:02;;;;;;;4.53;2.43;;;8.60;99.90;;;;;;5011125;28;20809;-68
2023/12/13 10:10:32;;;;;;;2.90;2.10;;;8.50;99.90;;;;;;5014587;28;20581;-68
2023/12/13 10:12:59;;;;;;;2.57;2.00;;;8.50;99.90;;;;;;5031132;28;20431;-68
2023/12/13 10:15:31;;;;;;;3.70;1.93;;;8.50;99.90;;;;;;5032346;28;20431;-68
2023/12/13 10:18:01;;;;;;;2.17;1.70;;;8.50;99.90;;;;;;5031894;28;20543;-68
2023/12/13 10:20:28;;;;;;;4.13;2.20;;;8.50;99.90;;;;;;5032201;28;20409;-68
2023/12/13 10:22:54;;;;;;;3.13;2.10;;;8.50;99.90;;;;;;5030788;28;20516;-68
2023/12/13 10:25:21;;;;;;;3.43;2.00;;;8.50;99.90;;;;;;5030665;28;20878;-68
2023/12/13 10:27:47;;;;;;;3.73;2.20;;;8.50;99.90;;;;;;5031903;28;20178;-68
2023/12/13 10:30:13;;;;;;;5.53;1.90;;;8.50;99.90;;;;;;5032275;28;20948;-68
2023/12/13 10:32:40;;;;;;;3.23;2.07;;;8.50;99.90;;;;;;5031989;28;20174;-68
2023/12/13 10:35:07;;;;;;;2.10;1.90;;;8.50;99.90;;;;;;5032049;28;20420;-68
2023/12/13 10:37:34;;;;;;;2.63;1.90;;;8.80;99.90;;;;;;5019447;28;20523;-68
2023/12/13 10:40:00;;;;;;;5.00;1.70;;;9.20;99.90;;;;;;5013411;28;20849;-68
2023/12/13 10:42:26;;;;;;;3.17;2.00;;;9.90;99.90;;;;;;5012480;28;20418;-68
2023/12/13 10:44:53;;;;;;;3.93;1.90;;;10.60;99.90;;;;;;5012520;28;20496;-68
2023/12/13 10:47:25;;;;;;;1.63;1.50;;;11.60;99.90;;;;;;5012043;28;20459;-69
2023/12/13 10:49:58;;;;;;;3.43;2.07;;;12.70;99.90;;;;;;5012291;28;21074;-69
2023/12/13 10:52:26;;;;;;;4.20;2.00;;;15.40;99.90;;;;;;5013330;28;20564;-69
2023/12/13 10:54:52;;;;;;;2.03;1.80;;;18.30;99.90;;;;;;5012282;28;20421;-69
2023/12/13 10:57:18;;;;;;;3.77;1.90;;;19.30;99.90;;;;;;5030417;28;20464;-69
2023/12/13 10:59:45;;;;;;;1.80;1.70;;;22.10;99.90;;;;;;5032012;28;20432;-69
2023/12/13 11:02:14;;;;;;;2.03;1.60;;;23.70;97.10;;;;;;5031786;28;20421;-69
2023/12/13 11:04:43;;;;;;;1.67;1.30;;;25.00;85.50;;;;;;5031908;28;20428;-69
2023/12/13 11:07:08;;;;;;;1.73;1.50;;;23.70;85.20;;;;;;5031734;28;20424;-69
2023/12/13 11:09:35;;;;;;;2.90;1.60;;;23.90;82.10;;;;;;5014725;28;20454;-69
2023/12/13 11:12:11;;;;;;;1.50;1.40;;;23.60;78.80;;;;;;5012154;28;20167;-69
2023/12/13 11:14:40;;;;;;;1.50;1.40;;;24.10;74.80;;;;;;5012182;28;20413;-69
2023/12/13 11:17:05;;;;;;;2.17;1.60;;;23.00;77.80;;;;;;5012954;28;20476;-69
2023/12/13 11:19:33;;;;;;;1.57;1.47;;;24.20;72.40;;;;;;5011781;28;20473;-69
2023/12/13 11:21:59;;;;;;;2.83;1.60;;;24.80;67.70;;;;;;5011914;28;20171;-69
2023/12/13 11:24:28;;;;;;;3.20;1.50;;;25.90;63.30;;;;;;5013300;28;20480;-69
2023/12/13 11:26:58;;;;;;;1.37;1.10;;;26.10;58.20;;;;;;5011919;28;20167;-69
2023/12/13 11:29:27;;;;;;;2.10;1.30;;;22.80;67.10;;;;;;5013932;28;20536;-69
2023/12/13 11:31:56;;;;;;;1.83;1.50;;;21.10;83.70;;;;;;5031574;28;20425;-69
2023/12/13 11:34:31;;;;;;;1.80;1.30;;;20.40;90.30;;;;;;5031752;28;20427;-69
2023/12/13 11:37:01;;;;;;;3.37;1.63;;;20.60;90.70;;;;;;5031269;28;20983;-69
2023/12/13 11:39:28;;;;;;;1.27;1.17;;;22.30;83.70;;;;;;5029819;28;20503;-69
2023/12/13 11:41:53;;;;;;;1.63;1.53;;;24.60;71.70;;;;;;5031466;28;20930;-69
2023/12/13 11:44:19;;;;;;;3.30;1.70;;;24.70;62.30;;;;;;5033282;28;20424;-69
2023/12/13 11:46:56;;;;;;;1.33;1.23;;;23.50;65.50;;;;;;5034970;28;20224;-69
2023/12/13 11:49:22;;;;;;;1.43;1.30;;;20.70;77.80;;;;;;5030566;28;20190;-69
2023/12/13 11:51:48;;;;;;;2.30;1.20;;;19.50;92.30;;;;;;5015386;28;20471;-68
2023/12/13 11:54:13;;;;;;;3.77;1.50;;;18.50;95.50;;;;;;5016428;28;20948;-68
2023/12/13 11:56:42;;;;;;;1.63;1.50;;;18.20;97.90;;;;;;5015100;28;20434;-68
2023/12/13 11:59:08;;;;;;;2.17;1.40;;;17.30;99.90;;;;;;5015202;28;20551;-68
2023/12/13 12:01:33;;;;;;;1.73;1.60;;;16.50;99.90;;;;;;5015108;28;20420;-68
2023/12/13 12:03:59;;;;;;;1.43;1.33;;;16.30;99.90;;;;;;5022287;28;20163;-68
2023/12/13 12:06:25;;;;;;;2.93;1.20;;;16.60;99.90;;;;;;5023263;28;20551;-68
2023/12/13 12:08:50;;;;;;;1.93;1.80;;;16.50;99.90;;;;;;5057762;22;20250;-67
2023/12/13 12:11:19;;;;;;;1.60;1.50;;;16.10;99.90;;;;;;5068007;28;20836;-69
2023/12/13 12:13:44;;;;;;;3.83;2.07;;;16.00;99.90;;;;;;5074587;28;20173;-69
2023/12/13 12:16:10;;;;;;;10.43;2.17;;;17.40;99.90;;;;;;5073967;28;20466;-70
2023/12/13 12:18:38;;;;;;;3.10;2.80;;;18.70;99.90;;;;;;5069964;28;20262;-70
2023/12/13 12:21:06;;;;;;;2.93;2.47;;;19.90;96.30;;;;;;5054390;28;20755;-70
2023/12/13 12:23:33;;;;;;;1.50;1.40;;;20.40;94.40;;;;;;5054464;28;20499;-70
2023/12/13 12:26:03;;;;;;;2.57;1.77;;;18.60;98.00;;;;;;5052746;28;20427;-70
2023/12/13 12:28:29;;;;;;;1.83;1.73;;;17.10;99.90;;;;;;5054068;28;20436;-70
2023/12/13 12:30:54;;;;;;;2.20;2.00;;;15.40;99.90;;;;;;5054180;28;20466;-70
2023/12/13 12:33:20;;;;;;;2.23;1.80;;;14.80;99.90;;;;;;5052495;28;20187;-70
2023/12/13 12:35:45;;;;;;;2.10;1.83;;;14.90;99.90;;;;;;5054098;28;20239;-69
2023/12/13 12:38:11;;;;;;;2.37;1.80;;;15.10;99.90;;;;;;5053649;28;20590;-69
2023/12/13 12:40:36;;;;;;;2.00;1.90;;;14.80;99.90;;;;;;5052408;28;20185;-69
2023/12/13 12:43:02;;;;;;;2.13;2.03;;;15.30;99.90;;;;;;5054021;28;20189;-69
2023/12/13 12:45:28;;;;;;;1.57;1.47;;;17.10;99.90;;;;;;5053931;28;20651;-70
2023/12/13 12:47:54;;;;;;;2.00;1.70;;;18.40;99.90;;;;;;5052189;28;20170;-70
2023/12/13 12:50:20;;;;;;;3.23;1.53;;;18.40;99.90;;;;;;5053693;28;20949;-70